createdAt,value
2022-10-28T00:09:11.369Z,30.92
2022-10-28T00:19:18.965Z,31.73
2022-10-28T00:29:21.916Z,31.83
2022-10-28T00:39:25.308Z,31.45
2022-10-28T00:49:30.130Z,33.45
2022-10-28T00:59:36.958Z,31.65
2022-10-28T01:09:42.246Z,35.17
2022-10-28T01:20:21.593Z,32.85
2022-10-28T01:30:28.260Z,32.08
2022-10-28T01:41:09.441Z,30.77
2022-10-28T01:51:25.541Z,31.40
2022-10-28T02:01:29.309Z,32.60
2022-10-28T02:12:04.669Z,32.30
2022-10-28T02:22:09.811Z,32.00
2022-10-28T02:32:20.235Z,31.10
2022-10-28T02:42:44.524Z,31.33
2022-10-28T02:52:51.502Z,28.10
2022-10-28T03:02:57.870Z,29.40
2022-10-28T03:13:02.892Z,28.55
2022-10-28T03:23:07.223Z,27.42
2022-10-28T03:33:14.214Z,28.80
2022-10-28T03:43:17.990Z,25.73
2022-10-28T03:53:27.685Z,27.63
2022-10-28T04:03:34.780Z,27.63
2022-10-28T04:13:42.474Z,26.27
2022-10-28T04:23:48.156Z,27.33
2022-10-28T04:33:50.495Z,26.65
2022-10-28T04:43:52.728Z,26.50
2022-10-28T04:53:57.076Z,27.43
2022-10-28T05:03:59.363Z,26.48
2022-10-28T05:14:04.597Z,26.40
2022-10-28T05:24:08.987Z,28.20
2022-10-28T05:34:13.874Z,22.70
2022-10-28T05:44:20.139Z,24.67
2022-10-28T05:54:22.341Z,24.13
2022-10-28T06:04:27.682Z,24.03
2022-10-28T06:14:29.327Z,25.43
2022-10-28T06:24:31.438Z,25.70
2022-10-28T06:34:37.840Z,25.27
2022-10-28T06:44:42.540Z,24.20
2022-10-28T06:54:48.566Z,23.15
2022-10-28T07:04:50.608Z,22.23
2022-10-28T07:14:52.623Z,20.25
2022-10-28T07:24:57.094Z,20.75
2022-10-28T07:35:01.447Z,19.80
2022-10-28T07:45:07.200Z,21.35
2022-10-28T07:55:12.471Z,20.08
2022-10-28T08:05:17.217Z,18.15
2022-10-28T08:15:24.789Z,21.48
2022-10-28T08:25:28.974Z,21.35
2022-10-28T08:35:35.550Z,20.67
2022-10-28T08:46:02.128Z,22.08
2022-10-28T08:56:46.314Z,21.63
2022-10-28T09:06:50.629Z,21.33
2022-10-28T09:17:35.497Z,21.08
2022-10-28T09:27:55.579Z,19.73
2022-10-28T09:38:18.809Z,21.48
2022-10-28T09:48:31.555Z,22.15
2022-10-28T09:58:38.890Z,21.98
2022-10-28T10:08:45.394Z,19.15
2022-10-28T10:18:54.677Z,19.60
2022-10-28T10:29:01.696Z,21.83
2022-10-28T10:39:24.743Z,18.90
2022-10-28T10:49:30.258Z,20.02
2022-10-28T10:59:35.402Z,19.63
2022-10-28T11:09:45.194Z,19.77
2022-10-28T11:19:54.980Z,17.38
2022-10-28T11:30:00.511Z,16.95
2022-10-28T11:40:46.157Z,15.75
2022-10-28T11:51:02.312Z,16.15
2022-10-28T12:01:44.117Z,15.20
2022-10-28T12:12:41.195Z,13.27
2022-10-28T12:22:49.900Z,12.38
2022-10-28T12:33:07.317Z,12.68
2022-10-28T12:43:36.026Z,9.93
2022-10-28T12:53:53.277Z,9.77
2022-10-28T13:04:47.024Z,10.15
2022-10-28T13:15:12.146Z,10.30
2022-10-28T13:25:38.837Z,8.40
2022-10-28T13:35:43.261Z,8.63
2022-10-28T13:45:56.076Z,8.45
2022-10-28T13:56:12.424Z,9.85
2022-10-28T14:06:31.298Z,9.60
2022-10-28T14:16:33.260Z,25.80
2022-10-28T14:27:06.863Z,10.90
2022-10-28T14:37:32.200Z,15.02
2022-10-28T14:48:01.160Z,10.73
2022-10-28T14:58:18.638Z,10.20
2022-10-28T15:08:21.771Z,10.38
2022-10-28T15:18:26.472Z,10.50
2022-10-28T15:28:28.570Z,10.25
2022-10-28T15:38:51.514Z,12.20
2022-10-28T15:48:57.393Z,11.30
2022-10-28T15:59:21.863Z,11.57
2022-10-28T16:09:29.691Z,17.73
2022-10-28T16:19:37.276Z,13.45
2022-10-28T16:29:41.602Z,13.50
2022-10-28T16:39:45.834Z,10.55
2022-10-28T16:49:54.375Z,11.07
2022-10-28T17:00:00.974Z,10.63
2022-10-28T17:10:03.139Z,10.70
2022-10-28T17:20:06.005Z,11.48
2022-10-28T17:30:08.969Z,10.32
2022-10-28T17:40:16.306Z,10.85
2022-10-28T17:50:18.436Z,11.23
2022-10-28T18:00:23.071Z,11.35
2022-10-28T18:10:27.510Z,9.77
2022-10-28T18:20:34.723Z,10.13
2022-10-28T18:30:39.016Z,10.55
2022-10-28T18:41:05.387Z,10.18
2022-10-28T18:51:13.779Z,10.75
2022-10-28T19:01:21.663Z,9.40
2022-10-28T19:11:30.445Z,9.52
2022-10-28T19:21:33.755Z,9.65
2022-10-28T19:31:42.046Z,9.07
2022-10-28T19:41:51.432Z,8.13
2022-10-28T19:51:53.941Z,8.73
2022-10-28T20:01:56.050Z,8.50
2022-10-28T20:11:59.313Z,7.97
2022-10-28T20:22:01.438Z,8.18
2022-10-28T20:32:05.728Z,7.25
2022-10-28T20:42:07.935Z,7.10
2022-10-28T20:52:16.820Z,7.43
2022-10-28T21:02:20.248Z,6.90
2022-10-28T21:12:26.066Z,7.10
2022-10-28T21:22:28.061Z,7.28
2022-10-28T21:32:38.408Z,7.70
2022-10-28T21:42:40.437Z,6.63
2022-10-28T21:52:47.136Z,7.93
2022-10-28T22:02:57.362Z,7.95
2022-10-28T22:13:06.547Z,7.85
2022-10-28T22:23:08.587Z,7.78
2022-10-28T22:33:10.601Z,7.95
2022-10-28T22:43:15.676Z,9.07
2022-10-28T22:53:22.454Z,8.23
2022-10-28T23:03:29.427Z,13.10
2022-10-28T23:13:31.637Z,8.20
2022-10-28T23:23:38.406Z,8.32
2022-10-28T23:33:40.695Z,8.63
2022-10-28T23:43:43.265Z,8.07
2022-10-28T23:53:47.663Z,7.28
